Time;durP1;ratioP1;P1;durP2;ratioP2;P2;SDS_P1;SDS_P2;PMS_P1;PMS_P2;Temp;Humidity;BMP_temperature;BMP_pressure;BME280_temperature;BME280_humidity;BME280_pressure;Samples;Min_cycle;Max_cycle;Signal;HPM_P1;HPM_P2
2023/05/02 00:02:11;;;;;;;6.63;4.25;;;16.70;57.50;;;;;;5037237;28;20036;-72
2023/05/02 00:04:37;;;;;;;7.30;4.30;;;16.70;57.50;;;;;;5042776;28;20033;-72
2023/05/02 00:07:03;;;;;;;10.43;5.60;;;16.70;57.60;;;;;;5038777;28;20112;-72
2023/05/02 00:09:29;;;;;;;6.85;4.63;;;16.60;57.60;;;;;;5045581;28;20037;-72
2023/05/02 00:11:54;;;;;;;6.35;3.83;;;16.70;57.60;;;;;;5035421;28;20032;-73
2023/05/02 00:14:20;;;;;;;6.45;4.60;;;16.60;57.50;;;;;;5040971;28;20412;-72
2023/05/02 00:16:45;;;;;;;6.88;4.30;;;16.60;57.50;;;;;;5044459;28;20031;-72
2023/05/02 00:19:11;;;;;;;6.28;3.88;;;16.60;57.50;;;;;;5044840;28;20040;-72
2023/05/02 00:21:37;;;;;;;7.07;3.67;;;16.50;57.50;;;;;;5056401;28;20500;-73
2023/05/02 00:24:02;;;;;;;6.75;4.30;;;16.50;57.50;;;;;;5042158;28;20032;-70
2023/05/02 00:26:28;;;;;;;8.95;4.25;;;16.40;57.50;;;;;;5036018;28;20038;-74
2023/05/02 00:28:54;;;;;;;5.63;4.13;;;16.40;57.30;;;;;;5043845;28;20025;-75
2023/05/02 00:31:19;;;;;;;6.43;4.50;;;16.30;57.20;;;;;;5052527;28;20033;-75
2023/05/02 00:33:45;;;;;;;10.60;4.35;;;16.30;57.40;;;;;;5045881;28;20049;-75
2023/05/02 00:36:18;;;;;;;6.60;4.30;;;16.30;57.50;;;;;;5040550;28;20425;-75
2023/05/02 00:38:44;;;;;;;8.07;4.60;;;16.20;57.30;;;;;;5044750;28;20045;-74
2023/05/02 00:41:10;;;;;;;5.68;3.67;;;16.20;57.70;;;;;;5041221;28;20044;-74
2023/05/02 00:43:38;;;;;;;5.55;3.85;;;16.20;57.80;;;;;;5037126;28;20380;-74
2023/05/02 00:46:05;;;;;;;7.82;4.25;;;16.10;57.70;;;;;;5042560;28;20029;-75
2023/05/02 00:48:31;;;;;;;5.55;3.92;;;16.10;57.80;;;;;;5044504;28;20025;-74
2023/05/02 00:50:57;;;;;;;6.07;3.88;;;16.10;58.30;;;;;;5039255;28;20044;-75
2023/05/02 00:53:23;;;;;;;6.72;4.25;;;16.10;58.10;;;;;;5035012;28;20447;-74
2023/05/02 00:55:49;;;;;;;7.13;3.60;;;16.00;58.20;;;;;;5039675;28;20112;-74
2023/05/02 00:58:17;;;;;;;10.07;4.05;;;16.00;58.40;;;;;;5033944;28;20060;-74
2023/05/02 01:01:11;;;;;;;5.88;3.78;;;16.00;58.40;;;;;;5036837;28;20021;-74
2023/05/02 01:03:55;;;;;;;9.13;3.70;;;15.90;58.50;;;;;;5045199;28;20040;-75
2023/05/02 01:06:30;;;;;;;6.80;4.20;;;15.90;58.90;;;;;;5037825;28;20030;-75
2023/05/02 01:09:20;;;;;;;5.82;4.03;;;15.80;58.90;;;;;;5050115;28;20037;-74
2023/05/02 01:12:03;;;;;;;5.82;4.10;;;15.80;59.50;;;;;;5035506;28;20500;-75
2023/05/02 01:14:32;;;;;;;9.82;4.88;;;15.80;60.00;;;;;;5034431;28;20060;-74
2023/05/02 01:17:03;;;;;;;5.85;4.10;;;15.80;59.70;;;;;;5034579;28;20120;-74
2023/05/02 01:19:34;;;;;;;4.30;3.30;;;15.70;60.10;;;;;;5043645;28;20044;-74
2023/05/02 01:22:03;;;;;;;7.55;3.83;;;15.70;60.50;;;;;;5044158;28;20055;-74
2023/05/02 01:24:40;;;;;;;6.55;4.03;;;15.70;60.70;;;;;;5036711;28;20537;-74
2023/05/02 01:27:40;;;;;;;6.60;4.43;;;15.70;61.10;;;;;;5033857;28;20037;-74
2023/05/02 01:30:08;;;;;;;6.25;4.53;;;15.60;61.90;;;;;;5044933;28;20068;-75
2023/05/02 01:32:38;;;;;;;6.43;3.92;;;15.60;61.50;;;;;;5044423;28;20032;-75
2023/05/02 01:35:05;;;;;;;8.35;4.55;;;15.60;61.80;;;;;;5044897;28;20029;-75
2023/05/02 01:37:32;;;;;;;5.55;3.78;;;15.60;62.20;;;;;;5036406;28;20037;-74
2023/05/02 01:40:00;;;;;;;7.00;4.10;;;15.50;62.80;;;;;;5042097;28;20116;-75
2023/05/02 01:42:26;;;;;;;8.57;4.70;;;15.60;62.70;;;;;;5035818;28;20446;-74
2023/05/02 01:44:55;;;;;;;8.38;4.45;;;15.50;62.90;;;;;;5040683;28;20041;-74
2023/05/02 01:47:22;;;;;;;5.65;4.07;;;15.50;63.40;;;;;;5037836;28;20041;-76
2023/05/02 01:49:48;;;;;;;6.10;4.32;;;15.50;63.60;;;;;;5041560;28;20386;-75
2023/05/02 01:52:16;;;;;;;7.85;4.10;;;15.50;63.70;;;;;;5033364;28;20021;-76
2023/05/02 01:54:42;;;;;;;6.47;4.22;;;15.50;63.90;;;;;;5042235;28;20108;-75
2023/05/02 01:57:10;;;;;;;14.77;4.90;;;15.40;64.10;;;;;;5031220;28;20026;-76
2023/05/02 01:59:39;;;;;;;5.72;3.95;;;15.40;64.80;;;;;;5039172;28;20067;-75
2023/05/02 02:02:06;;;;;;;6.53;3.80;;;15.30;64.70;;;;;;5044393;28;20112;-75
2023/05/02 02:04:34;;;;;;;6.90;4.00;;;15.30;64.80;;;;;;5043066;28;20032;-75
2023/05/02 02:07:09;;;;;;;9.40;4.18;;;15.30;65.00;;;;;;5033219;28;20464;-76
2023/05/02 02:09:35;;;;;;;6.25;3.90;;;15.30;65.40;;;;;;5034810;28;20040;-77
2023/05/02 02:12:21;;;;;;;6.10;3.97;;;15.30;65.40;;;;;;5039293;28;20077;-76
2023/05/02 02:14:55;;;;;;;8.43;4.15;;;15.20;65.70;;;;;;5045803;28;20561;-76
2023/05/02 02:17:25;;;;;;;5.63;4.00;;;15.20;65.90;;;;;;5046578;28;20038;-75
2023/05/02 02:19:54;;;;;;;5.13;3.80;;;15.10;65.80;;;;;;5033484;28;20033;-75
2023/05/02 02:22:22;;;;;;;8.93;4.32;;;15.10;66.00;;;;;;5041181;28;20021;-75
2023/05/02 02:24:48;;;;;;;6.28;4.00;;;15.10;66.80;;;;;;5039436;28;20052;-74
2023/05/02 02:27:14;;;;;;;7.22;4.85;;;15.10;66.60;;;;;;5039354;28;20053;-75
2023/05/02 02:29:40;;;;;;;6.88;3.75;;;15.00;66.70;;;;;;5032398;28;20087;-75
2023/05/02 02:32:05;;;;;;;7.53;4.05;;;14.90;67.60;;;;;;5043843;28;20036;-75
2023/05/02 02:34:31;;;;;;;5.72;4.18;;;14.80;67.60;;;;;;5040320;28;20034;-76
2023/05/02 02:37:14;;;;;;;7.10;3.13;;;14.80;67.70;;;;;;5046900;28;20099;-75
2023/05/02 02:40:05;;;;;;;6.85;3.88;;;14.70;68.00;;;;;;5033495;28;20457;-75
2023/05/02 02:42:41;;;;;;;5.70;4.47;;;14.60;68.10;;;;;;5031609;28;20392;-75
2023/05/02 02:45:12;;;;;;;5.03;3.50;;;14.60;68.40;;;;;;5034994;28;20029;-75
2023/05/02 02:47:49;;;;;;;6.18;4.18;;;14.50;68.30;;;;;;5037477;28;20112;-75
2023/05/02 02:50:48;;;;;;;6.80;3.75;;;14.50;68.70;;;;;;5043292;28;20523;-75
2023/05/02 02:53:19;;;;;;;7.07;3.38;;;14.50;68.50;;;;;;5039899;28;20021;-75
2023/05/02 02:55:52;;;;;;;7.93;3.47;;;14.40;68.50;;;;;;5038609;28;20056;-75
2023/05/02 02:58:53;;;;;;;7.15;3.85;;;14.30;68.90;;;;;;5038643;28;20035;-76
2023/05/02 03:01:21;;;;;;;7.07;3.63;;;14.30;69.30;;;;;;5031504;28;20033;-76
2023/05/02 03:03:48;;;;;;;5.68;3.92;;;14.20;69.20;;;;;;5043668;28;20496;-75
2023/05/02 03:06:16;;;;;;;4.65;3.15;;;14.20;69.20;;;;;;5046764;28;20036;-75
2023/05/02 03:08:43;;;;;;;4.53;3.40;;;14.20;69.60;;;;;;5037121;28;20026;-76
2023/05/02 03:11:09;;;;;;;8.02;3.85;;;14.20;69.60;;;;;;5034327;28;20048;-75
2023/05/02 03:13:37;;;;;;;6.45;3.55;;;14.10;69.60;;;;;;5033898;28;20384;-75
2023/05/02 03:16:33;;;;;;;4.78;3.45;;;14.10;70.00;;;;;;5037554;28;20070;-75
2023/05/02 03:18:58;;;;;;;8.20;3.85;;;14.00;70.20;;;;;;5037359;28;20025;-74
2023/05/02 03:21:24;;;;;;;6.45;3.58;;;14.00;70.50;;;;;;5040121;28;20031;-75
2023/05/02 03:23:50;;;;;;;7.85;4.13;;;13.80;70.40;;;;;;5040984;28;20451;-76
2023/05/02 03:26:16;;;;;;;6.00;3.80;;;13.80;71.00;;;;;;5042646;28;20524;-76
2023/05/02 03:28:45;;;;;;;9.13;3.92;;;13.80;71.00;;;;;;5045380;28;20029;-75
2023/05/02 03:31:11;;;;;;;5.50;3.65;;;13.80;70.90;;;;;;5035585;28;20536;-75
2023/05/02 03:33:37;;;;;;;6.20;3.55;;;13.90;71.20;;;;;;5040912;28;20095;-76
2023/05/02 03:36:02;;;;;;;9.70;4.15;;;13.90;71.20;;;;;;5034310;28;20497;-76
2023/05/02 03:38:31;;;;;;;9.00;4.13;;;13.90;71.30;;;;;;5040430;28;20072;-76
2023/05/02 03:40:57;;;;;;;5.00;3.08;;;13.80;71.40;;;;;;5032519;28;20079;-76
2023/05/02 03:43:22;;;;;;;5.60;3.50;;;13.80;71.70;;;;;;5043395;28;20368;-76
2023/05/02 03:45:48;;;;;;;4.78;3.22;;;13.80;71.80;;;;;;5040103;28;20108;-76
2023/05/02 03:48:14;;;;;;;4.20;2.92;;;13.80;71.80;;;;;;5033342;28;20314;-75
2023/05/02 03:50:39;;;;;;;4.60;2.83;;;13.80;71.90;;;;;;5041969;28;20033;-75
2023/05/02 03:53:07;;;;;;;6.80;3.00;;;13.80;72.00;;;;;;5035864;28;20563;-74
2023/05/02 03:55:32;;;;;;;9.15;3.28;;;13.70;72.10;;;;;;5033584;28;20037;-74
2023/05/02 03:57:58;;;;;;;6.15;3.45;;;13.70;72.30;;;;;;5043870;28;20396;-74
2023/05/02 04:00:24;;;;;;;5.43;3.85;;;13.70;72.60;;;;;;5034385;28;20400;-74
2023/05/02 04:02:50;;;;;;;7.43;3.80;;;13.70;72.80;;;;;;5032722;28;20037;-74
2023/05/02 04:05:16;;;;;;;6.70;3.25;;;13.60;72.80;;;;;;5039333;28;20040;-74
2023/05/02 04:07:41;;;;;;;7.10;3.88;;;13.60;73.60;;;;;;5045362;28;20389;-74
2023/05/02 04:10:15;;;;;;;6.25;3.60;;;13.50;73.60;;;;;;5039744;28;20037;-75
2023/05/02 04:12:40;;;;;;;5.75;4.05;;;13.50;73.80;;;;;;5029839;28;20030;-74
2023/05/02 04:15:06;;;;;;;8.40;3.95;;;13.50;73.90;;;;;;5041510;28;20039;-75
2023/05/02 04:17:32;;;;;;;7.65;3.75;;;13.50;74.20;;;;;;5034640;28;20047;-74
2023/05/02 04:19:58;;;;;;;6.15;4.05;;;13.50;74.70;;;;;;5046293;28;20422;-74
2023/05/02 04:22:23;;;;;;;6.82;3.30;;;13.50;74.80;;;;;;5031638;28;20032;-75
2023/05/02 04:24:49;;;;;;;6.72;3.78;;;13.50;74.80;;;;;;5045429;28;20518;-75
2023/05/02 04:27:14;;;;;;;6.13;3.00;;;13.50;74.80;;;;;;5036451;28;20028;-75
2023/05/02 04:29:40;;;;;;;6.85;3.50;;;13.60;74.90;;;;;;5044777;28;20033;-75
2023/05/02 04:32:06;;;;;;;15.88;4.65;;;13.50;75.20;;;;;;5053005;28;20036;-75
2023/05/02 04:34:31;;;;;;;5.18;4.00;;;13.60;75.30;;;;;;5042500;28;20029;-75
2023/05/02 04:36:57;;;;;;;5.70;3.03;;;13.60;75.50;;;;;;5048345;28;20064;-75
2023/05/02 04:39:23;;;;;;;5.45;3.05;;;13.50;75.80;;;;;;5040604;28;20420;-75
2023/05/02 04:41:48;;;;;;;4.97;3.22;;;13.50;75.70;;;;;;5035475;28;20153;-77
2023/05/02 04:44:14;;;;;;;5.32;3.67;;;13.50;75.80;;;;;;5034662;28;20369;-75
2023/05/02 04:46:40;;;;;;;6.65;3.60;;;13.50;76.70;;;;;;5041964;28;20021;-75
2023/05/02 04:49:05;;;;;;;7.72;3.78;;;13.60;76.30;;;;;;5048639;28;20055;-75
2023/05/02 04:51:31;;;;;;;3.90;2.75;;;13.60;76.20;;;;;;5041014;28;20026;-75
2023/05/02 04:53:57;;;;;;;4.65;3.10;;;13.60;76.10;;;;;;5032677;28;20025;-76
2023/05/02 04:56:22;;;;;;;6.03;3.33;;;13.70;76.40;;;;;;5040078;28;20468;-76
2023/05/02 04:58:48;;;;;;;4.40;2.92;;;13.70;76.30;;;;;;5043330;28;20025;-75
2023/05/02 05:01:13;;;;;;;4.47;3.30;;;13.70;76.50;;;;;;5039266;28;20028;-75
2023/05/02 05:03:39;;;;;;;5.50;2.70;;;13.70;76.40;;;;;;5049224;28;20029;-75
2023/05/02 05:06:05;;;;;;;5.63;3.47;;;13.80;76.80;;;;;;5042623;28;20400;-75
2023/05/02 05:08:30;;;;;;;4.40;2.80;;;13.80;76.20;;;;;;5038812;28;20083;-73
2023/05/02 05:10:56;;;;;;;7.70;3.40;;;13.80;76.20;;;;;;5044856;28;20063;-70
2023/05/02 05:13:22;;;;;;;4.32;2.90;;;14.00;76.80;;;;;;5034194;28;20021;-69
2023/05/02 05:15:47;;;;;;;7.60;3.45;;;13.90;76.30;;;;;;5044485;28;20029;-73
2023/05/02 05:18:13;;;;;;;5.72;2.92;;;13.90;76.20;;;;;;5036703;28;20071;-75
2023/05/02 05:20:38;;;;;;;6.65;3.70;;;13.90;76.30;;;;;;5040924;28;20079;-72
2023/05/02 05:23:04;;;;;;;10.15;3.80;;;13.90;76.40;;;;;;5038953;28;20464;-71
2023/05/02 05:25:30;;;;;;;4.93;3.53;;;13.90;76.50;;;;;;5033743;28;20030;-71
2023/05/02 05:27:55;;;;;;;5.45;3.65;;;13.90;76.60;;;;;;5033662;28;20108;-71
2023/05/02 05:30:21;;;;;;;5.57;3.28;;;13.90;76.60;;;;;;5047373;28;20082;-70
2023/05/02 05:32:47;;;;;;;10.18;3.60;;;13.80;76.50;;;;;;5042898;28;20106;-72
2023/05/02 05:35:12;;;;;;;5.78;3.10;;;13.90;76.60;;;;;;5036815;28;20045;-73
2023/05/02 05:37:38;;;;;;;6.65;3.80;;;13.90;76.70;;;;;;5034987;28;20082;-72
2023/05/02 05:40:09;;;;;;;6.72;3.50;;;14.00;76.70;;;;;;5037615;28;20117;-72
2023/05/02 05:42:35;;;;;;;5.38;3.13;;;13.90;76.90;;;;;;5041029;28;20060;-72
2023/05/02 05:45:00;;;;;;;9.45;3.80;;;13.90;77.10;;;;;;5033534;28;20053;-72
2023/05/02 05:47:26;;;;;;;7.70;4.55;;;14.00;77.20;;;;;;5036996;28;20029;-71
2023/05/02 05:49:52;;;;;;;7.75;4.22;;;13.90;77.40;;;;;;5044007;28;20033;-76
2023/05/02 05:52:18;;;;;;;5.65;3.90;;;13.90;77.60;;;;;;5040460;28;20052;-74
2023/05/02 05:54:44;;;;;;;6.13;3.72;;;14.00;77.90;;;;;;5037017;28;20464;-74
2023/05/02 05:57:09;;;;;;;8.10;4.07;;;14.00;78.10;;;;;;5037954;28;20862;-73
2023/05/02 05:59:35;;;;;;;6.60;3.65;;;14.00;78.00;;;;;;5038512;28;20021;-73
2023/05/02 06:02:01;;;;;;;5.38;3.83;;;14.10;78.00;;;;;;5039708;28;20041;-73
2023/05/02 06:04:26;;;;;;;6.72;4.20;;;14.10;78.20;;;;;;5044035;28;20193;-73
2023/05/02 06:06:55;;;;;;;7.85;4.15;;;14.10;78.30;;;;;;5051315;28;20025;-74
2023/05/02 06:09:20;;;;;;;8.10;4.18;;;14.10;78.20;;;;;;5033220;28;20045;-74
2023/05/02 06:11:46;;;;;;;8.95;5.05;;;14.20;78.50;;;;;;5031252;28;20091;-73
2023/05/02 06:14:12;;;;;;;7.13;4.47;;;14.20;78.40;;;;;;5037117;28;20037;-72
2023/05/02 06:16:37;;;;;;;6.30;4.43;;;14.20;78.40;;;;;;5040310;28;20132;-71
2023/05/02 06:19:03;;;;;;;7.25;4.75;;;14.20;78.50;;;;;;5027819;28;20029;-72
2023/05/02 06:21:28;;;;;;;7.55;4.60;;;14.30;78.70;;;;;;5040330;28;20021;-71
2023/05/02 06:23:54;;;;;;;7.63;5.03;;;14.30;79.40;;;;;;5039373;28;20037;-71
2023/05/02 06:26:20;;;;;;;12.25;4.82;;;14.40;79.10;;;;;;5035532;28;20040;-70
2023/05/02 06:28:46;;;;;;;6.63;4.80;;;14.30;79.20;;;;;;5037301;28;20460;-70
2023/05/02 06:31:11;;;;;;;8.30;4.32;;;14.40;79.40;;;;;;5044328;28;20123;-70
2023/05/02 06:33:37;;;;;;;6.55;4.18;;;14.40;79.40;;;;;;5035921;28;20115;-71
2023/05/02 06:36:03;;;;;;;6.63;4.60;;;14.40;79.90;;;;;;5032757;28;20030;-70
2023/05/02 06:38:29;;;;;;;9.35;4.82;;;14.40;80.10;;;;;;5033306;28;20069;-70
2023/05/02 06:40:54;;;;;;;9.52;5.03;;;14.40;80.20;;;;;;5047529;28;20116;-70
2023/05/02 06:43:20;;;;;;;8.20;4.97;;;14.50;80.40;;;;;;5046351;28;20531;-71
2023/05/02 06:45:46;;;;;;;6.32;3.97;;;14.50;80.40;;;;;;5036433;28;20091;-71
2023/05/02 06:48:11;;;;;;;7.45;5.93;;;14.60;80.30;;;;;;5047457;28;20052;-71
2023/05/02 06:50:37;;;;;;;8.60;5.85;;;14.60;80.90;;;;;;5037262;28;20126;-71
2023/05/02 06:53:06;;;;;;;10.43;5.88;;;14.60;81.30;;;;;;5042083;28;20112;-70
2023/05/02 06:55:31;;;;;;;10.13;6.00;;;14.70;81.30;;;;;;5034694;28;20052;-71
2023/05/02 06:57:58;;;;;;;11.50;5.72;;;14.70;81.90;;;;;;5032111;28;20492;-70
2023/05/02 07:00:24;;;;;;;11.40;6.05;;;14.70;81.90;;;;;;5039094;28;20029;-70
2023/05/02 07:02:49;;;;;;;12.65;7.43;;;14.80;81.80;;;;;;5037002;28;20042;-71
2023/05/02 07:05:15;;;;;;;11.32;5.82;;;14.80;82.10;;;;;;5041065;28;20044;-70
2023/05/02 07:07:42;;;;;;;9.05;5.53;;;14.80;82.10;;;;;;5041304;28;20128;-69
2023/05/02 07:10:08;;;;;;;9.05;6.50;;;14.80;82.10;;;;;;5032517;28;20068;-69
2023/05/02 07:12:34;;;;;;;14.20;7.32;;;14.70;82.30;;;;;;5046017;28;20052;-70
2023/05/02 07:14:59;;;;;;;8.32;6.00;;;14.70;82.60;;;;;;5032720;28;20053;-69
2023/05/02 07:17:26;;;;;;;13.38;5.97;;;14.80;82.50;;;;;;5037208;28;20026;-69
2023/05/02 07:19:52;;;;;;;9.65;5.57;;;14.90;82.70;;;;;;5042558;28;20033;-69
2023/05/02 07:22:17;;;;;;;12.45;5.82;;;15.00;82.80;;;;;;5033226;28;20550;-69
2023/05/02 07:24:43;;;;;;;9.13;5.28;;;15.10;83.00;;;;;;5031371;28;20040;-69
2023/05/02 07:27:10;;;;;;;8.90;5.82;;;15.20;82.80;;;;;;5032067;28;20476;-69
2023/05/02 07:29:36;;;;;;;6.75;5.43;;;15.30;82.80;;;;;;5032087;28;20056;-69
2023/05/02 07:32:02;;;;;;;6.55;4.78;;;15.30;83.00;;;;;;5034214;28;20080;-69
2023/05/02 07:34:29;;;;;;;8.90;5.82;;;15.30;82.90;;;;;;5031775;28;20030;-69
2023/05/02 07:36:54;;;;;;;10.27;5.70;;;15.40;82.90;;;;;;5030683;28;20515;-69
2023/05/02 07:39:20;;;;;;;8.27;4.80;;;15.50;83.10;;;;;;5035048;28;20033;-69
2023/05/02 07:41:46;;;;;;;7.35;4.68;;;15.60;82.80;;;;;;5033487;28;20085;-69
2023/05/02 07:44:11;;;;;;;10.15;5.50;;;15.70;82.50;;;;;;5041950;28;20021;-69
2023/05/02 07:46:37;;;;;;;8.15;5.40;;;15.70;82.40;;;;;;5042952;28;20037;-69
2023/05/02 07:49:03;;;;;;;6.53;4.55;;;15.70;82.40;;;;;;5032967;28;20082;-69
2023/05/02 07:51:28;;;;;;;6.05;4.43;;;15.80;82.30;;;;;;5031059;28;20033;-69
2023/05/02 07:53:57;;;;;;;6.93;4.22;;;15.70;82.50;;;;;;5031398;28;20057;-69
2023/05/02 07:56:24;;;;;;;8.40;5.38;;;15.80;82.60;;;;;;5035634;28;20374;-70
2023/05/02 07:58:52;;;;;;;8.77;5.28;;;15.80;82.70;;;;;;5034760;28;20038;-71
2023/05/02 08:01:18;;;;;;;10.70;5.18;;;15.90;82.80;;;;;;5031060;28;20436;-70
2023/05/02 08:03:44;;;;;;;6.57;4.43;;;15.90;82.40;;;;;;5032379;28;21084;-70
2023/05/02 08:06:10;;;;;;;7.28;3.78;;;16.00;82.40;;;;;;5046421;28;20071;-70
2023/05/02 08:08:36;;;;;;;7.43;4.65;;;16.00;82.20;;;;;;5037321;28;20133;-70
2023/05/02 08:11:02;;;;;;;7.60;4.22;;;16.00;82.20;;;;;;5034887;28;20538;-70
2023/05/02 08:13:27;;;;;;;6.57;4.50;;;16.00;82.10;;;;;;5042995;28;20022;-70
2023/05/02 08:15:59;;;;;;;5.82;4.28;;;16.00;82.70;;;;;;5042518;28;20055;-70
2023/05/02 08:18:25;;;;;;;6.40;4.30;;;16.00;82.40;;;;;;5036645;28;20107;-70
2023/05/02 08:20:50;;;;;;;9.23;4.90;;;16.10;82.40;;;;;;5038712;28;20162;-70
2023/05/02 08:23:16;;;;;;;6.60;4.53;;;16.10;82.50;;;;;;5038032;28;20029;-70
2023/05/02 08:25:42;;;;;;;5.22;3.78;;;16.10;82.60;;;;;;5049732;28;20026;-70
2023/05/02 08:28:07;;;;;;;7.78;5.10;;;16.20;82.80;;;;;;5039332;28;20066;-70
2023/05/02 08:30:33;;;;;;;6.38;3.95;;;16.30;82.60;;;;;;5041952;28;20040;-71
2023/05/02 08:32:59;;;;;;;6.78;4.32;;;16.40;82.50;;;;;;5036592;28;20033;-71
2023/05/02 08:35:24;;;;;;;5.85;4.15;;;16.40;82.30;;;;;;5046058;28;20036;-71
2023/05/02 08:37:50;;;;;;;6.47;3.78;;;16.50;82.40;;;;;;5044173;28;20049;-70
2023/05/02 08:40:16;;;;;;;6.45;3.50;;;16.60;82.30;;;;;;5041620;28;20106;-71
2023/05/02 08:42:43;;;;;;;5.40;3.67;;;16.70;82.10;;;;;;5043986;28;20119;-69
2023/05/02 08:45:12;;;;;;;5.90;3.67;;;16.70;81.80;;;;;;5035743;28;20063;-70
2023/05/02 08:47:39;;;;;;;5.15;3.42;;;16.80;81.70;;;;;;5035025;28;20094;-70
2023/05/02 08:50:05;;;;;;;5.10;3.60;;;16.70;81.80;;;;;;5035660;28;20048;-69
2023/05/02 08:52:32;;;;;;;6.80;3.53;;;16.70;81.60;;;;;;5034119;28;20026;-70
2023/05/02 08:55:00;;;;;;;8.27;3.85;;;16.60;81.60;;;;;;5043659;28;20025;-69
2023/05/02 08:57:28;;;;;;;6.70;3.88;;;16.60;81.70;;;;;;5041263;28;20385;-70
2023/05/02 08:59:54;;;;;;;5.10;3.15;;;16.70;82.00;;;;;;5037747;28;20126;-70
2023/05/02 09:02:32;;;;;;;4.85;2.88;;;16.60;82.00;;;;;;5033383;28;20432;-69
2023/05/02 09:05:00;;;;;;;6.25;3.38;;;16.70;82.00;;;;;;5047207;28;20021;-71
2023/05/02 09:07:26;;;;;;;7.78;2.90;;;16.70;81.90;;;;;;5038028;28;20040;-70
2023/05/02 09:09:52;;;;;;;4.38;2.78;;;16.70;81.80;;;;;;5038004;28;20048;-70
2023/05/02 09:12:25;;;;;;;4.50;2.60;;;16.70;81.90;;;;;;5033895;28;20477;-70
2023/05/02 09:15:09;;;;;;;5.43;2.75;;;16.60;82.10;;;;;;5034446;28;20037;-70
2023/05/02 09:17:45;;;;;;;5.72;3.40;;;16.60;81.90;;;;;;5038213;28;20405;-70
2023/05/02 09:20:13;;;;;;;6.03;2.85;;;16.50;82.10;;;;;;5041537;28;20369;-70
2023/05/02 09:22:47;;;;;;;3.97;2.58;;;16.50;82.00;;;;;;5033837;28;20021;-68
2023/05/02 09:25:13;;;;;;;4.10;3.00;;;16.50;82.10;;;;;;5040115;28;20029;-69
2023/05/02 09:28:08;;;;;;;6.45;2.90;;;16.50;82.40;;;;;;5033554;28;20060;-68
2023/05/02 09:30:34;;;;;;;8.23;3.70;;;16.50;82.20;;;;;;5037522;28;20075;-71
2023/05/02 09:32:59;;;;;;;4.82;2.33;;;16.60;82.20;;;;;;5034075;28;20068;-69
2023/05/02 09:35:25;;;;;;;5.00;2.30;;;16.60;82.30;;;;;;5033414;28;20468;-69
2023/05/02 09:37:57;;;;;;;4.10;2.90;;;16.60;82.30;;;;;;5038809;28;20100;-69
2023/05/02 09:40:24;;;;;;;4.53;2.90;;;16.60;82.30;;;;;;5034443;28;20136;-69
2023/05/02 09:42:50;;;;;;;6.72;2.88;;;16.60;82.30;;;;;;5035152;28;20030;-69
2023/05/02 09:45:20;;;;;;;5.28;2.80;;;16.50;82.50;;;;;;5035780;28;20104;-69
2023/05/02 09:47:46;;;;;;;3.75;2.67;;;16.40;82.70;;;;;;5035419;28;20041;-67
2023/05/02 09:50:34;;;;;;;4.55;2.67;;;16.30;83.00;;;;;;5035633;28;22412;-68
2023/05/02 09:53:01;;;;;;;5.68;3.10;;;16.20;83.90;;;;;;5036142;28;20036;-68
2023/05/02 09:55:27;;;;;;;6.03;3.10;;;16.10;83.70;;;;;;5042115;28;20063;-69
2023/05/02 09:57:53;;;;;;;6.53;2.60;;;16.20;84.10;;;;;;5038514;28;20049;-69
2023/05/02 10:00:19;;;;;;;4.72;2.70;;;16.20;84.10;;;;;;5044135;28;20049;-68
2023/05/02 10:02:49;;;;;;;4.25;2.53;;;16.20;84.00;;;;;;5039746;28;20033;-69
2023/05/02 10:05:16;;;;;;;4.50;2.50;;;16.30;84.00;;;;;;5049937;28;20099;-69
2023/05/02 10:07:43;;;;;;;5.57;2.65;;;16.30;83.80;;;;;;5046850;28;20470;-69
2023/05/02 10:10:15;;;;;;;4.47;2.45;;;16.30;83.90;;;;;;5036087;28;20148;-69
2023/05/02 10:12:42;;;;;;;5.05;2.78;;;16.40;83.90;;;;;;5038450;28;20045;-69
2023/05/02 10:15:09;;;;;;;10.07;4.07;;;16.50;83.80;;;;;;5032742;28;20029;-69
2023/05/02 10:17:47;;;;;;;4.13;2.65;;;16.60;83.90;;;;;;5035197;28;20411;-69
2023/05/02 10:20:18;;;;;;;5.07;2.92;;;16.60;83.60;;;;;;5036246;28;20024;-69
2023/05/02 10:22:46;;;;;;;4.80;2.63;;;16.70;83.60;;;;;;5043387;28;20576;-69
2023/05/02 10:25:12;;;;;;;6.00;3.00;;;16.70;83.60;;;;;;5047309;28;20088;-69
2023/05/02 10:27:38;;;;;;;13.43;3.33;;;16.70;83.60;;;;;;5036174;28;20040;-70
2023/05/02 10:30:05;;;;;;;7.60;3.40;;;16.70;83.50;;;;;;5033849;28;20038;-69
2023/05/02 10:32:33;;;;;;;3.97;2.78;;;16.60;83.80;;;;;;5044818;28;20083;-70
2023/05/02 10:35:03;;;;;;;5.65;3.13;;;16.50;84.00;;;;;;5031924;28;20072;-69
2023/05/02 10:37:32;;;;;;;4.65;2.90;;;16.40;84.40;;;;;;5030429;28;20091;-70
2023/05/02 10:39:59;;;;;;;4.95;2.70;;;16.40;84.70;;;;;;5034554;28;20220;-69
2023/05/02 10:42:25;;;;;;;4.60;2.75;;;16.50;85.00;;;;;;5040121;28;20503;-70
2023/05/02 10:44:51;;;;;;;4.45;2.83;;;16.50;85.00;;;;;;5032914;28;20045;-69
2023/05/02 10:47:21;;;;;;;3.60;2.20;;;16.60;85.00;;;;;;5031542;28;20026;-69
2023/05/02 10:49:57;;;;;;;5.78;2.85;;;16.60;85.00;;;;;;5033726;28;20492;-69
2023/05/02 10:52:29;;;;;;;8.32;2.60;;;16.60;84.50;;;;;;5035056;28;20372;-69
2023/05/02 10:55:15;;;;;;;5.68;2.67;;;16.50;84.70;;;;;;5031094;28;20061;-69
2023/05/02 10:57:58;;;;;;;5.20;2.38;;;16.40;84.80;;;;;;5033732;28;20034;-69
2023/05/02 11:00:28;;;;;;;6.63;2.40;;;16.30;84.70;;;;;;5045250;28;20033;-69
2023/05/02 11:02:54;;;;;;;6.72;2.78;;;16.40;84.80;;;;;;5032050;28;20029;-69
2023/05/02 11:05:24;;;;;;;5.55;2.33;;;16.30;84.70;;;;;;5032217;28;20030;-70
2023/05/02 11:08:16;;;;;;;4.75;2.53;;;16.20;84.70;;;;;;5036949;28;20082;-71
2023/05/02 11:10:44;;;;;;;6.90;2.92;;;16.10;84.80;;;;;;5041937;28;20108;-69
2023/05/02 11:13:11;;;;;;;6.47;2.80;;;15.90;85.00;;;;;;5032197;28;20051;-69
2023/05/02 11:15:39;;;;;;;5.57;3.03;;;15.80;85.20;;;;;;5031095;28;20435;-70
2023/05/02 11:18:11;;;;;;;4.15;2.40;;;15.90;85.10;;;;;;5036664;28;20064;-69
2023/05/02 11:20:39;;;;;;;6.20;3.53;;;15.90;84.90;;;;;;5036529;28;20053;-70
2023/05/02 11:23:25;;;;;;;6.05;3.58;;;15.80;85.10;;;;;;5030329;28;20433;-70
2023/05/02 11:25:52;;;;;;;6.50;3.33;;;15.60;85.10;;;;;;5023061;28;20053;-69
2023/05/02 11:28:39;;;;;;;7.95;4.30;;;15.60;84.80;;;;;;5031413;28;20105;-69
2023/05/02 11:31:26;;;;;;;7.30;3.90;;;15.40;84.70;;;;;;5031220;28;20041;-70
2023/05/02 11:33:59;;;;;;;8.30;4.57;;;15.30;84.30;;;;;;5047104;28;20021;-70
2023/05/02 11:36:28;;;;;;;13.35;4.60;;;15.40;83.90;;;;;;5041245;28;20033;-70
2023/05/02 11:38:54;;;;;;;10.60;3.58;;;15.40;83.60;;;;;;5031327;28;20042;-70
2023/05/02 11:41:19;;;;;;;14.75;4.63;;;15.40;83.60;;;;;;5035558;28;20031;-70
2023/05/02 11:43:45;;;;;;;7.28;3.58;;;15.50;83.00;;;;;;5038721;28;20533;-70
2023/05/02 11:46:11;;;;;;;8.10;3.63;;;15.40;82.70;;;;;;5037690;28;20121;-70
2023/05/02 11:48:37;;;;;;;8.75;3.40;;;15.40;82.30;;;;;;5034103;28;20065;-70
2023/05/02 11:51:03;;;;;;;7.63;3.53;;;15.30;82.40;;;;;;5042529;28;20475;-67
2023/05/02 11:53:30;;;;;;;6.00;2.70;;;15.50;82.30;;;;;;5041632;28;20063;-70
2023/05/02 11:55:59;;;;;;;7.97;3.45;;;15.50;81.50;;;;;;5035408;28;20030;-70
2023/05/02 11:58:31;;;;;;;5.78;2.42;;;15.60;80.70;;;;;;5035356;28;20021;-70
2023/05/02 12:00:57;;;;;;;6.93;3.03;;;15.60;80.20;;;;;;5036914;28;20068;-69
2023/05/02 12:03:27;;;;;;;7.15;2.88;;;15.70;80.10;;;;;;5034041;28;20032;-69
2023/05/02 12:05:52;;;;;;;5.07;2.50;;;15.60;79.30;;;;;;5048666;28;20480;-68
2023/05/02 12:08:25;;;;;;;5.88;3.03;;;15.70;79.40;;;;;;5040906;28;20031;-69
2023/05/02 12:10:52;;;;;;;5.03;2.85;;;15.80;79.00;;;;;;5047696;28;20037;-70
2023/05/02 12:13:19;;;;;;;4.97;2.65;;;15.90;79.00;;;;;;5041375;28;20025;-69
2023/05/02 12:15:45;;;;;;;4.43;2.67;;;15.90;78.80;;;;;;5043909;28;20037;-70
2023/05/02 12:18:11;;;;;;;5.18;2.97;;;16.00;78.10;;;;;;5035229;28;20499;-69
2023/05/02 12:20:38;;;;;;;6.47;2.35;;;15.90;76.70;;;;;;5037634;28;20108;-69
2023/05/02 12:23:08;;;;;;;6.55;2.65;;;15.80;77.10;;;;;;5035322;28;20495;-70
2023/05/02 12:25:41;;;;;;;7.80;2.78;;;15.70;76.90;;;;;;5034865;28;20030;-69
2023/05/02 12:28:08;;;;;;;5.25;2.60;;;15.70;76.70;;;;;;5043957;28;20033;-69
2023/05/02 12:30:37;;;;;;;7.13;2.60;;;15.70;77.00;;;;;;5047875;28;20664;-69
2023/05/02 12:33:03;;;;;;;6.50;2.83;;;15.60;77.20;;;;;;5034967;28;20025;-69
2023/05/02 12:35:30;;;;;;;7.53;2.85;;;15.60;76.60;;;;;;5042055;28;20029;-69
2023/05/02 12:38:10;;;;;;;4.70;2.50;;;15.50;76.80;;;;;;5044594;28;20048;-69
2023/05/02 12:40:36;;;;;;;6.88;3.05;;;15.70;76.70;;;;;;5033546;28;20038;-70
2023/05/02 12:43:05;;;;;;;5.53;2.78;;;15.50;76.00;;;;;;5032786;28;20026;-69
2023/05/02 12:45:34;;;;;;;6.55;2.53;;;15.50;76.50;;;;;;5037186;28;20041;-69
2023/05/02 12:48:24;;;;;;;5.78;2.97;;;15.60;76.70;;;;;;5033412;28;20112;-69
2023/05/02 12:50:51;;;;;;;12.15;3.65;;;15.60;76.40;;;;;;5026709;28;20404;-69
2023/05/02 12:53:17;;;;;;;6.10;2.90;;;15.60;76.60;;;;;;5036696;28;20033;-69